Time;durP1;ratioP1;P1;durP2;ratioP2;P2;SDS_P1;SDS_P2;PMS_P1;PMS_P2;Temp;Humidity;BMP_temperature;BMP_pressure;BME280_temperature;BME280_humidity;BME280_pressure;Samples;Min_cycle;Max_cycle;Signal;HPM_P1;HPM_P2
2023/05/27 00:04:41;;;;;;;2.17;1.17;;;;;;;;;;13045319;22;20483;-80
2023/05/27 00:09:44;;;;;;;3.25;1.02;;;;;;;;;;13048598;22;20027;-80
2023/05/27 00:14:48;;;;;;;4.82;1.45;;;;;;;;;;13045846;22;20026;-80
2023/05/27 00:19:54;;;;;;;4.20;1.10;;;;;;;;;;13019274;22;20387;-80
2023/05/27 00:24:57;;;;;;;5.80;1.45;;;;;;;;;;13018813;22;20094;-80
2023/05/27 00:30:01;;;;;;;5.75;1.27;;;;;;;;;;13047810;22;20027;-82
2023/05/27 00:35:09;;;;;;;5.25;1.50;;;;;;;;;;13018081;22;20024;-79
2023/05/27 00:40:15;;;;;;;5.00;1.40;;;;;;;;;;13016582;22;20031;-79
2023/05/27 00:45:19;;;;;;;7.88;1.88;;;;;;;;;;13018088;22;20475;-80
2023/05/27 00:50:25;;;;;;;2.67;1.15;;;;;;;;;;13018173;22;20480;-79
2023/05/27 00:55:28;;;;;;;3.03;1.23;;;;;;;;;;13043951;22;20027;-84
2023/05/27 01:00:32;;;;;;;3.50;1.20;;;;;;;;;;13072189;22;20015;-80
2023/05/27 01:05:37;;;;;;;5.53;1.02;;;;;;;;;;13026810;22;20081;-81
2023/05/27 01:10:44;;;;;;;2.80;1.30;;;;;;;;;;13050007;22;20031;-80
2023/05/27 01:15:50;;;;;;;1.30;1.02;;;;;;;;;;13018245;22;24279;-80
2023/05/27 01:21:00;;;;;;;5.13;1.37;;;;;;;;;;13064161;22;20019;-80
2023/05/27 01:26:06;;;;;;;2.63;1.35;;;;;;;;;;13017393;22;20019;-80
2023/05/27 01:31:16;;;;;;;3.22;1.30;;;;;;;;;;13017147;22;20126;-80
2023/05/27 01:36:22;;;;;;;5.05;1.45;;;;;;;;;;13014856;22;20094;-80
2023/05/27 01:41:27;;;;;;;3.80;1.30;;;;;;;;;;13017526;22;20038;-80
2023/05/27 01:46:30;;;;;;;4.35;1.42;;;;;;;;;;13016731;22;20031;-80
2023/05/27 01:51:34;;;;;;;2.95;1.30;;;;;;;;;;13016568;22;20031;-80
2023/05/27 01:56:39;;;;;;;3.70;1.50;;;;;;;;;;13016598;22;20019;-80
2023/05/27 02:01:43;;;;;;;4.77;1.50;;;;;;;;;;13016268;22;20023;-79
2023/05/27 02:06:46;;;;;;;5.07;1.42;;;;;;;;;;13016381;22;20019;-80
2023/05/27 02:11:54;;;;;;;2.67;1.50;;;;;;;;;;13019877;22;20518;-80
2023/05/27 02:16:57;;;;;;;2.83;1.30;;;;;;;;;;13020555;22;20533;-81
2023/05/27 02:22:01;;;;;;;3.53;1.30;;;;;;;;;;13062437;22;20097;-80
2023/05/27 02:27:07;;;;;;;4.50;1.25;;;;;;;;;;13019515;22;20030;-79
2023/05/27 02:32:10;;;;;;;4.70;1.30;;;;;;;;;;13019624;22;20030;-80
2023/05/27 02:37:18;;;;;;;4.72;1.70;;;;;;;;;;13018223;22;20111;-80
2023/05/27 02:42:23;;;;;;;2.90;1.48;;;;;;;;;;13058608;22;20058;-80
2023/05/27 02:47:26;;;;;;;3.53;1.70;;;;;;;;;;13021174;22;20043;-80
2023/05/27 02:52:31;;;;;;;3.28;1.50;;;;;;;;;;13020211;22;20027;-80
2023/05/27 02:57:36;;;;;;;3.58;1.52;;;;;;;;;;13020385;22;20080;-80
2023/05/27 03:02:40;;;;;;;5.22;1.90;;;;;;;;;;13019963;22;20042;-80
2023/05/27 03:07:43;;;;;;;2.67;1.20;;;;;;;;;;13019163;22;20019;-80
2023/05/27 03:12:48;;;;;;;3.70;1.55;;;;;;;;;;13019735;22;20375;-80
2023/05/27 03:17:53;;;;;;;3.97;1.60;;;;;;;;;;13020740;22;20034;-80
2023/05/27 03:22:57;;;;;;;3.20;1.33;;;;;;;;;;13020083;22;20086;-80
2023/05/27 03:28:02;;;;;;;3.67;1.45;;;;;;;;;;13020197;22;20019;-80
2023/05/27 03:33:05;;;;;;;6.75;1.98;;;;;;;;;;13019156;22;20019;-80
2023/05/27 03:38:13;;;;;;;3.00;1.45;;;;;;;;;;13020259;22;20515;-80
2023/05/27 03:43:18;;;;;;;4.43;1.80;;;;;;;;;;13019038;22;20019;-80
2023/05/27 03:48:23;;;;;;;3.00;1.42;;;;;;;;;;13020097;22;20027;-80
2023/05/27 03:53:26;;;;;;;4.00;1.80;;;;;;;;;;13044915;22;20027;-80
2023/05/27 03:58:31;;;;;;;4.07;1.60;;;;;;;;;;13019691;22;20524;-80
2023/05/27 04:03:37;;;;;;;3.88;1.67;;;;;;;;;;13019552;22;20021;-80
2023/05/27 04:08:41;;;;;;;4.70;1.88;;;;;;;;;;13019053;22;20023;-81
2023/05/27 04:13:48;;;;;;;4.93;1.70;;;;;;;;;;13019050;22;20088;-80
2023/05/27 04:18:52;;;;;;;4.03;1.63;;;;;;;;;;13018444;22;20485;-81
2023/05/27 04:23:56;;;;;;;3.72;1.83;;;;;;;;;;13051873;22;20019;-80
2023/05/27 04:29:01;;;;;;;3.55;1.30;;;;;;;;;;13029264;22;20130;-81
2023/05/27 04:34:05;;;;;;;2.53;1.13;;;;;;;;;;13026069;22;20019;-80
2023/05/27 04:39:11;;;;;;;4.47;1.73;;;;;;;;;;13025372;22;20031;-80
2023/05/27 04:44:19;;;;;;;3.63;1.55;;;;;;;;;;13022970;22;20353;-80
2023/05/27 04:49:25;;;;;;;2.97;1.45;;;;;;;;;;13020778;22;20031;-80
2023/05/27 04:54:30;;;;;;;4.35;1.48;;;;;;;;;;13019788;22;20094;-80
2023/05/27 04:59:59;;;;;;;3.85;1.50;;;;;;;;;;13019537;22;20019;-80
2023/05/27 05:05:03;;;;;;;4.55;1.35;;;;;;;;;;13019251;22;20027;-80
2023/05/27 05:10:08;;;;;;;2.60;1.25;;;;;;;;;;12983899;22;20046;-81
2023/05/27 05:15:22;;;;;;;4.00;1.45;;;;;;;;;;13023969;22;20026;-81
2023/05/27 05:20:27;;;;;;;4.10;1.60;;;;;;;;;;13024676;22;20084;-81
2023/05/27 05:25:35;;;;;;;6.40;1.95;;;;;;;;;;13024068;22;20338;-81
2023/05/27 05:30:40;;;;;;;6.28;1.65;;;;;;;;;;13024242;22;20049;-81
2023/05/27 05:35:46;;;;;;;5.70;1.90;;;;;;;;;;13023495;22;20050;-80
2023/05/27 05:41:01;;;;;;;4.28;1.83;;;;;;;;;;13024904;22;20568;-81
2023/05/27 05:46:08;;;;;;;3.20;1.23;;;;;;;;;;13027437;22;20360;-80
2023/05/27 05:51:12;;;;;;;4.70;1.60;;;;;;;;;;13028684;22;20098;-81
2023/05/27 05:56:19;;;;;;;3.22;1.40;;;;;;;;;;13054160;22;20019;-80
2023/05/27 06:01:26;;;;;;;3.45;1.40;;;;;;;;;;13051104;22;20023;-80
2023/05/27 06:06:30;;;;;;;5.00;1.65;;;;;;;;;;13026829;22;20023;-80
2023/05/27 06:11:54;;;;;;;5.60;1.67;;;;;;;;;;13027441;22;20027;-81
2023/05/27 06:17:00;;;;;;;4.32;1.90;;;;;;;;;;13028102;22;20050;-80
2023/05/27 06:22:04;;;;;;;6.53;2.25;;;;;;;;;;13027475;22;20030;-80
2023/05/27 06:27:26;;;;;;;5.55;2.20;;;;;;;;;;13027045;22;20062;-81
2023/05/27 06:32:33;;;;;;;4.53;1.90;;;;;;;;;;13027457;22;20034;-80
2023/05/27 06:37:37;;;;;;;3.90;1.50;;;;;;;;;;13026012;22;20461;-81
2023/05/27 06:42:40;;;;;;;6.60;2.47;;;;;;;;;;13026171;22;20026;-80
2023/05/27 06:47:52;;;;;;;6.10;2.20;;;;;;;;;;13051774;22;20030;-80
2023/05/27 06:52:56;;;;;;;5.38;1.80;;;;;;;;;;13025677;22;20031;-80
2023/05/27 06:58:24;;;;;;;8.35;2.63;;;;;;;;;;13052368;22;20021;-80
2023/05/27 07:03:33;;;;;;;5.90;1.75;;;;;;;;;;13025695;22;20050;-80
2023/05/27 07:08:37;;;;;;;3.63;1.80;;;;;;;;;;13025274;22;20393;-82
2023/05/27 07:13:54;;;;;;;5.65;2.20;;;;;;;;;;13058389;22;20023;-81
2023/05/27 07:19:09;;;;;;;4.53;1.42;;;;;;;;;;13024623;22;20025;-81
2023/05/27 07:24:22;;;;;;;6.50;2.30;;;;;;;;;;13050369;22;20054;-81
2023/05/27 07:29:30;;;;;;;6.18;2.00;;;;;;;;;;13025457;22;20038;-81
2023/05/27 07:34:56;;;;;;;4.60;1.95;;;;;;;;;;13025366;22;20026;-81
2023/05/27 07:40:00;;;;;;;7.40;2.17;;;;;;;;;;13025440;22;20019;-81
2023/05/27 07:45:08;;;;;;;7.57;2.42;;;;;;;;;;13025424;22;20027;-81
2023/05/27 07:50:14;;;;;;;5.73;1.70;;;;;;;;;;13026780;22;20053;-82
2023/05/27 07:55:24;;;;;;;6.13;1.92;;;;;;;;;;13047924;22;20549;-81
2023/05/27 08:00:28;;;;;;;4.95;1.80;;;;;;;;;;13022970;22;20065;-82
2023/05/27 08:05:33;;;;;;;6.30;1.95;;;;;;;;;;13049090;22;20019;-82
2023/05/27 08:11:06;;;;;;;5.80;1.70;;;;;;;;;;13027017;22;20583;-82
2023/05/27 08:16:28;;;;;;;4.53;1.60;;;;;;;;;;13068661;22;20015;-81
2023/05/27 08:21:52;;;;;;;2.63;1.25;;;;;;;;;;13050358;22;20019;-81
2023/05/27 08:27:44;;;;;;;6.07;2.35;;;;;;;;;;13023437;22;20023;-80
2023/05/27 08:32:54;;;;;;;3.90;1.58;;;;;;;;;;13020698;22;20085;-81
2023/05/27 08:51:35;;;;;;;4.13;1.50;;;;;;;;;;12822358;22;20098;-84
2023/05/27 08:56:40;;;;;;;5.45;2.00;;;;;;;;;;13001033;22;20484;-86
2023/05/27 09:01:46;;;;;;;7.10;1.80;;;;;;;;;;13002770;22;20023;-83
2023/05/27 09:06:52;;;;;;;7.43;2.15;;;;;;;;;;13005338;22;20095;-84
2023/05/27 09:11:59;;;;;;;5.30;2.15;;;;;;;;;;13031149;22;20020;-83
2023/05/27 09:17:07;;;;;;;7.07;2.40;;;;;;;;;;13027512;22;20028;-83
2023/05/27 09:22:20;;;;;;;7.20;2.17;;;;;;;;;;13043288;22;20068;-84
2023/05/27 09:27:28;;;;;;;5.53;1.65;;;;;;;;;;13003078;22;20482;-83
2023/05/27 09:32:32;;;;;;;5.40;2.45;;;;;;;;;;13004599;22;20031;-83
2023/05/27 09:37:37;;;;;;;3.45;1.30;;;;;;;;;;13007732;22;20019;-84
2023/05/27 09:42:43;;;;;;;8.52;1.70;;;;;;;;;;13035493;22;20023;-84
2023/05/27 09:47:50;;;;;;;3.20;1.65;;;;;;;;;;13010063;22;20024;-84
2023/05/27 09:52:56;;;;;;;5.90;1.88;;;;;;;;;;13043421;22;20181;-84
2023/05/27 09:58:07;;;;;;;4.95;1.35;;;;;;;;;;13007538;22;20058;-84
2023/05/27 10:03:11;;;;;;;6.82;1.55;;;;;;;;;;13008184;22;20027;-84
2023/05/27 10:08:16;;;;;;;4.28;1.45;;;;;;;;;;13000924;22;20054;-85
2023/05/27 10:13:28;;;;;;;5.35;2.00;;;;;;;;;;12998804;22;20106;-84
2023/05/27 10:18:33;;;;;;;8.32;2.50;;;;;;;;;;13001041;22;20506;-84
2023/05/27 10:23:38;;;;;;;4.88;1.50;;;;;;;;;;13002797;22;20054;-85
2023/05/27 10:28:41;;;;;;;5.40;2.10;;;;;;;;;;13011337;22;20046;-83
2023/05/27 10:33:47;;;;;;;5.03;1.75;;;;;;;;;;13013650;22;20019;-83
2023/05/27 10:38:58;;;;;;;2.30;1.45;;;;;;;;;;13049612;22;20020;-83
2023/05/27 10:44:01;;;;;;;5.32;1.58;;;;;;;;;;13041112;22;20030;-85
2023/05/27 10:49:23;;;;;;;4.20;1.83;;;;;;;;;;13009002;22;20025;-85
2023/05/27 10:54:28;;;;;;;6.53;1.83;;;;;;;;;;13008294;22;20038;-85
2023/05/27 10:59:48;;;;;;;4.20;1.42;;;;;;;;;;13027773;22;20043;-84
2023/05/27 11:04:52;;;;;;;8.43;2.55;;;;;;;;;;13000984;22;20042;-84
2023/05/27 11:09:56;;;;;;;5.07;1.88;;;;;;;;;;13002605;22;20065;-85
2023/05/27 11:15:00;;;;;;;3.27;1.10;;;;;;;;;;13025729;22;20076;-85
2023/05/27 11:20:05;;;;;;;3.53;1.60;;;;;;;;;;13031765;22;20098;-86
2023/05/27 11:25:10;;;;;;;;;;;;;;;;;;13005940;22;20474;-86
2023/05/27 11:30:15;;;;;;;5.88;2.00;;;;;;;;;;13025900;22;19939;-87
2023/05/27 11:35:19;;;;;;;3.83;1.40;;;;;;;;;;12999801;22;20023;-86
2023/05/27 11:40:24;;;;;;;4.20;1.63;;;;;;;;;;13002008;22;20039;-86
2023/05/27 11:45:27;;;;;;;4.63;1.52;;;;;;;;;;13000536;22;20031;-85
2023/05/27 11:50:30;;;;;;;7.65;1.50;;;;;;;;;;12993470;22;20015;-85
2023/05/27 11:55:35;;;;;;;3.28;1.33;;;;;;;;;;13027679;22;20061;-85
2023/05/27 12:00:38;;;;;;;5.53;1.73;;;;;;;;;;13001274;22;20027;-86
2023/05/27 12:05:41;;;;;;;5.00;1.85;;;;;;;;;;13003405;22;20663;-86
2023/05/27 12:10:50;;;;;;;4.97;1.95;;;;;;;;;;13003109;22;20016;-85
2023/05/27 12:15:53;;;;;;;3.15;1.73;;;;;;;;;;13050186;22;20046;-88
2023/05/27 12:20:57;;;;;;;5.22;2.28;;;;;;;;;;13002746;22;20098;-87
2023/05/27 12:26:03;;;;;;;5.03;1.45;;;;;;;;;;13049703;22;20015;-87
2023/05/27 12:31:06;;;;;;;3.58;2.00;;;;;;;;;;13004774;22;20268;-88
2023/05/27 12:36:11;;;;;;;5.20;2.10;;;;;;;;;;13050264;22;20031;-89
2023/05/27 12:41:16;;;;;;;3.87;1.80;;;;;;;;;;13003911;22;20015;-87
2023/05/27 12:46:19;;;;;;;4.85;1.48;;;;;;;;;;13028662;22;20019;-88
2023/05/27 12:51:22;;;;;;;5.28;1.90;;;;;;;;;;13004066;22;20072;-86
2023/05/27 12:56:27;;;;;;;4.97;1.90;;;;;;;;;;13002241;22;20416;-86
2023/05/27 13:01:31;;;;;;;;;;;;;;;;;;13002817;22;20054;-86
2023/05/27 13:06:34;;;;;;;3.85;1.50;;;;;;;;;;13030506;22;20324;-85
2023/05/27 13:11:39;;;;;;;4.28;1.60;;;;;;;;;;13002928;22;20451;-86
2023/05/27 13:16:43;;;;;;;6.30;2.25;;;;;;;;;;13003275;22;20501;-86
2023/05/27 13:21:46;;;;;;;7.45;1.95;;;;;;;;;;13001136;22;20026;-85
2023/05/27 13:26:51;;;;;;;3.35;1.27;;;;;;;;;;13030064;22;20086;-86
2023/05/27 13:31:55;;;;;;;;;;;;;;;;;;13003403;22;20043;-85
2023/05/27 13:36:58;;;;;;;3.15;1.45;;;;;;;;;;13001870;22;19914;-85
2023/05/27 13:42:03;;;;;;;5.07;1.60;;;;;;;;;;13001314;22;20466;-85
2023/05/27 13:47:06;;;;;;;4.80;1.90;;;;;;;;;;13043708;22;20035;-85
2023/05/27 13:52:10;;;;;;;3.95;1.33;;;;;;;;;;13043665;22;20050;-85
2023/05/27 13:57:15;;;;;;;4.72;1.63;;;;;;;;;;13001571;22;20027;-86
2023/05/27 14:02:18;;;;;;;3.10;1.52;;;;;;;;;;13028089;22;20019;-86
2023/05/27 14:07:23;;;;;;;4.72;1.88;;;;;;;;;;13033546;22;20072;-86
2023/05/27 14:12:27;;;;;;;4.33;1.73;;;;;;;;;;13033913;22;20031;-86
2023/05/27 14:17:31;;;;;;;3.67;1.50;;;;;;;;;;13034501;22;20028;-86
2023/05/27 14:22:34;;;;;;;3.60;1.80;;;;;;;;;;13031303;22;20027;-85
2023/05/27 14:27:40;;;;;;;5.32;2.00;;;;;;;;;;13007014;22;20046;-86
2023/05/27 14:32:43;;;;;;;3.42;1.40;;;;;;;;;;13003933;22;20050;-85
2023/05/27 14:37:47;;;;;;;5.38;1.70;;;;;;;;;;13032761;22;20365;-86
2023/05/27 14:42:52;;;;;;;4.13;1.25;;;;;;;;;;13005158;22;20023;-86
2023/05/27 14:47:55;;;;;;;3.65;1.73;;;;;;;;;;13033806;22;20019;-86
2023/05/27 14:52:59;;;;;;;4.80;1.92;;;;;;;;;;13032596;22;20019;-85
2023/05/27 14:58:06;;;;;;;3.45;1.60;;;;;;;;;;13005549;22;20102;-86
2023/05/27 15:03:09;;;;;;;4.60;1.70;;;;;;;;;;13041863;22;20484;-85
2023/05/27 15:08:15;;;;;;;3.00;1.20;;;;;;;;;;13004751;22;20019;-85
2023/05/27 15:13:20;;;;;;;3.58;1.73;;;;;;;;;;13032169;22;20023;-85
2023/05/27 15:18:23;;;;;;;6.35;1.92;;;;;;;;;;13004877;22;20413;-88
2023/05/27 15:23:27;;;;;;;3.90;1.45;;;;;;;;;;13005627;22;20045;-88
2023/05/27 15:28:31;;;;;;;5.45;1.83;;;;;;;;;;13008281;22;20346;-88
2023/05/27 15:33:35;;;;;;;4.07;1.83;;;;;;;;;;13033592;22;20078;-87
2023/05/27 15:38:39;;;;;;;2.33;1.43;;;;;;;;;;13034220;22;20043;-87
2023/05/27 15:43:44;;;;;;;3.45;1.92;;;;;;;;;;13032881;22;20043;-87
2023/05/27 15:48:48;;;;;;;3.30;1.40;;;;;;;;;;13005645;22;20016;-87
2023/05/27 15:53:51;;;;;;;3.85;1.50;;;;;;;;;;13030855;22;20220;-87
2023/05/27 15:58:56;;;;;;;3.17;1.42;;;;;;;;;;13006069;22;20081;-87
2023/05/27 16:03:59;;;;;;;4.03;1.60;;;;;;;;;;13005751;22;20027;-87
2023/05/27 16:09:03;;;;;;;3.72;1.48;;;;;;;;;;13006549;22;20378;-87
2023/05/27 16:14:08;;;;;;;3.30;1.30;;;;;;;;;;13006182;22;20027;-86
2023/05/27 16:19:11;;;;;;;4.82;1.63;;;;;;;;;;13005141;22;20038;-85
2023/05/27 16:24:15;;;;;;;3.20;1.10;;;;;;;;;;13004524;22;20031;-88
2023/05/27 16:29:20;;;;;;;2.30;1.35;;;;;;;;;;13004772;22;20094;-86
2023/05/27 16:34:23;;;;;;;3.17;1.20;;;;;;;;;;13004233;22;20030;-86
2023/05/27 16:39:27;;;;;;;2.67;1.40;;;;;;;;;;13005724;22;20489;-87
2023/05/27 16:44:32;;;;;;;2.67;1.55;;;;;;;;;;13033326;22;20027;-86
2023/05/27 16:49:35;;;;;;;3.25;1.20;;;;;;;;;;13032704;22;20073;-86
2023/05/27 16:54:38;;;;;;;3.35;1.20;;;;;;;;;;13032030;22;20027;-86
2023/05/27 16:59:43;;;;;;;2.85;1.13;;;;;;;;;;13003777;22;20058;-87
2023/05/27 17:04:46;;;;;;;2.55;1.30;;;;;;;;;;13030302;22;20023;-86
2023/05/27 17:09:51;;;;;;;2.95;1.35;;;;;;;;;;12977718;22;20331;-85
2023/05/27 17:14:59;;;;;;;2.75;1.30;;;;;;;;;;12973883;22;20030;-86
2023/05/27 17:20:06;;;;;;;1.70;1.02;;;;;;;;;;13033174;22;20354;-85
2023/05/27 17:25:16;;;;;;;3.92;1.35;;;;;;;;;;12989425;22;20027;-85
2023/05/27 17:30:21;;;;;;;3.88;1.58;;;;;;;;;;13003805;22;20080;-85
2023/05/27 17:35:33;;;;;;;3.03;1.37;;;;;;;;;;13029670;22;20081;-85
2023/05/27 17:40:37;;;;;;;4.63;1.58;;;;;;;;;;12991014;22;20094;-85
2023/05/27 17:45:47;;;;;;;2.20;0.90;;;;;;;;;;13001226;22;20146;-86
2023/05/27 17:50:52;;;;;;;1.25;0.88;;;;;;;;;;13004895;22;20019;-86
2023/05/27 17:55:59;;;;;;;3.03;1.30;;;;;;;;;;13021750;22;20209;-86
2023/05/27 18:01:04;;;;;;;2.28;1.10;;;;;;;;;;12923742;22;20031;-87
2023/05/27 18:06:12;;;;;;;2.03;0.90;;;;;;;;;;12839693;23;20024;-85
2023/05/27 18:11:16;;;;;;;5.05;1.33;;;;;;;;;;12839445;23;20075;-87
2023/05/27 18:16:21;;;;;;;3.30;1.30;;;;;;;;;;12810633;23;20402;-87
2023/05/27 18:21:30;;;;;;;1.65;1.10;;;;;;;;;;12814556;23;20024;-86
2023/05/27 18:26:41;;;;;;;2.97;1.17;;;;;;;;;;12843068;23;20044;-87
2023/05/27 18:31:48;;;;;;;2.03;1.05;;;;;;;;;;12856508;23;20021;-87
2023/05/27 18:36:54;;;;;;;3.05;1.20;;;;;;;;;;12842401;23;20034;-87
2023/05/27 18:42:00;;;;;;;;;;;;;;;;;;12841271;23;20028;-87
2023/05/27 18:47:05;;;;;;;2.72;0.90;;;;;;;;;;12865330;23;19922;-88
2023/05/27 18:52:27;;;;;;;2.33;0.98;;;;;;;;;;12814373;23;20024;-87
2023/05/27 18:57:48;;;;;;;3.03;1.17;;;;;;;;;;12801274;23;20055;-86
2023/05/27 19:03:00;;;;;;;2.13;0.93;;;;;;;;;;12812822;23;20028;-88
2023/05/27 19:08:04;;;;;;;1.92;1.00;;;;;;;;;;12813915;23;20025;-87
2023/05/27 19:13:17;;;;;;;2.10;1.08;;;;;;;;;;12813866;23;20025;-86
2023/05/27 19:18:32;;;;;;;1.98;1.15;;;;;;;;;;12848662;23;20086;-86
2023/05/27 19:24:05;;;;;;;2.27;1.20;;;;;;;;;;12813647;23;20099;-87
2023/05/27 19:29:30;;;;;;;4.22;1.50;;;;;;;;;;12845300;23;20051;-87
2023/05/27 19:34:37;;;;;;;2.58;1.17;;;;;;;;;;12820831;23;20511;-87
2023/05/27 19:40:10;;;;;;;3.90;1.40;;;;;;;;;;12849377;23;20021;-87
2023/05/27 19:45:31;;;;;;;2.38;1.30;;;;;;;;;;12847793;23;20024;-87
2023/05/27 19:50:37;;;;;;;2.72;1.48;;;;;;;;;;12751376;23;20112;-87
2023/05/27 20:01:47;;;;;;;4.28;1.50;;;;;;;;;;12779190;23;20032;-88
2023/05/27 20:07:40;;;;;;;3.17;1.55;;;;;;;;;;12815466;23;20025;-88
2023/05/27 20:13:03;;;;;;;4.22;1.67;;;;;;;;;;12682735;23;20472;-88
2023/05/27 20:45:50;;;;;;;3.95;1.98;;;;;;;;;;12347573;23;20026;-90
2023/05/27 21:06:18;;;;;;;;;;;;;;;;;;;;;
2023/05/27 21:17:51;;;;;;;4.60;2.95;;;;;;;;;;12607407;23;20490;-81
2023/05/27 21:22:54;;;;;;;4.93;2.83;;;;;;;;;;12618436;23;20052;-81
2023/05/27 21:27:58;;;;;;;3.83;2.55;;;;;;;;;;12615875;23;20361;-81
2023/05/27 21:33:02;;;;;;;5.90;2.50;;;;;;;;;;12615482;23;20026;-81
2023/05/27 21:38:06;;;;;;;6.85;2.70;;;;;;;;;;12615933;23;20085;-81
2023/05/27 21:43:10;;;;;;;4.30;2.63;;;;;;;;;;12614872;23;20057;-81
2023/05/27 21:48:15;;;;;;;3.28;2.33;;;;;;;;;;12604562;23;20078;-81
2023/05/27 21:53:18;;;;;;;4.40;2.10;;;;;;;;;;12604284;23;20026;-81
2023/05/27 21:58:22;;;;;;;3.30;1.95;;;;;;;;;;12578496;23;20033;-81
2023/05/27 22:03:26;;;;;;;2.78;1.83;;;;;;;;;;12628088;23;20400;-81
2023/05/27 22:08:31;;;;;;;3.88;2.58;;;;;;;;;;12612937;23;20031;-80
2023/05/27 22:13:34;;;;;;;2.90;1.90;;;;;;;;;;12627235;23;20033;-80
2023/05/27 22:18:39;;;;;;;5.15;2.08;;;;;;;;;;12605084;23;20133;-81
2023/05/27 22:23:43;;;;;;;3.78;1.90;;;;;;;;;;12604020;23;20026;-81
2023/05/27 22:28:46;;;;;;;4.72;2.20;;;;;;;;;;12615331;23;20026;-81
2023/05/27 22:33:51;;;;;;;3.33;1.95;;;;;;;;;;12608189;23;20026;-81
2023/05/27 22:38:55;;;;;;;3.63;2.03;;;;;;;;;;12610152;23;20058;-81
2023/05/27 22:43:58;;;;;;;4.50;2.30;;;;;;;;;;12607425;23;20045;-81
2023/05/27 22:49:03;;;;;;;3.67;1.85;;;;;;;;;;12614388;23;20030;-80
2023/05/27 22:54:07;;;;;;;3.42;2.03;;;;;;;;;;12607859;23;20030;-81
2023/05/27 22:59:10;;;;;;;3.60;1.75;;;;;;;;;;12608648;23;20085;-81
2023/05/27 23:04:15;;;;;;;3.80;2.03;;;;;;;;;;12612274;23;20023;-81
2023/05/27 23:09:19;;;;;;;2.85;1.90;;;;;;;;;;12716765;23;20104;-84
2023/05/27 23:14:22;;;;;;;4.30;1.77;;;;;;;;;;12816648;23;20020;-84
2023/05/27 23:19:28;;;;;;;3.22;1.90;;;;;;;;;;12826298;23;20017;-84
2023/05/27 23:24:32;;;;;;;3.85;2.05;;;;;;;;;;12851827;23;20020;-83
2023/05/27 23:29:35;;;;;;;4.22;2.17;;;;;;;;;;12851309;23;20417;-83
2023/05/27 23:34:40;;;;;;;3.50;1.77;;;;;;;;;;12845027;23;20419;-84
2023/05/27 23:39:43;;;;;;;3.95;2.40;;;;;;;;;;12816047;23;20020;-84
2023/05/27 23:44:46;;;;;;;4.63;2.20;;;;;;;;;;12816613;23;20024;-83
2023/05/27 23:49:51;;;;;;;4.90;2.53;;;;;;;;;;12843504;23;20025;-84
2023/05/27 23:54:55;;;;;;;3.50;2.20;;;;;;;;;;12843899;23;20032;-84
2023/05/27 23:59:58;;;;;;;4.70;2.55;;;;;;;;;;12815730;23;20056;-84
